sensor_id;sensor_type;location;lat;lon;timestamp;P1;durP1;ratioP1;P2;durP2;ratioP2
7971;SDS011;4031;49.758;6.120;2023-06-22T00:01:27;10.17;;;8.33;;
7971;SDS011;4031;49.758;6.120;2023-06-22T00:03:53;9.87;;;8.07;;
7971;SDS011;4031;49.758;6.120;2023-06-22T00:06:19;9.67;;;7.70;;
7971;SDS011;4031;49.758;6.120;2023-06-22T00:08:45;10.50;;;8.00;;
7971;SDS011;4031;49.758;6.120;2023-06-22T00:11:10;9.50;;;7.90;;
7971;SDS011;4031;49.758;6.120;2023-06-22T00:13:36;9.47;;;8.57;;
7971;SDS011;4031;49.758;6.120;2023-06-22T00:16:03;12.07;;;8.67;;
7971;SDS011;4031;49.758;6.120;2023-06-22T00:18:29;12.77;;;9.03;;
7971;SDS011;4031;49.758;6.120;2023-06-22T00:20:55;13.20;;;9.60;;
7971;SDS011;4031;49.758;6.120;2023-06-22T00:23:22;13.00;;;9.53;;
7971;SDS011;4031;49.758;6.120;2023-06-22T00:25:48;12.90;;;8.87;;
7971;SDS011;4031;49.758;6.120;2023-06-22T00:28:14;12.00;;;9.37;;
7971;SDS011;4031;49.758;6.120;2023-06-22T00:30:40;11.40;;;8.93;;
7971;SDS011;4031;49.758;6.120;2023-06-22T00:33:06;16.80;;;10.40;;
7971;SDS011;4031;49.758;6.120;2023-06-22T00:35:32;12.73;;;10.10;;
7971;SDS011;4031;49.758;6.120;2023-06-22T00:37:59;15.83;;;11.03;;
7971;SDS011;4031;49.758;6.120;2023-06-22T00:40:32;13.00;;;10.30;;
7971;SDS011;4031;49.758;6.120;2023-06-22T00:42:59;12.27;;;9.70;;
7971;SDS011;4031;49.758;6.120;2023-06-22T00:45:25;15.70;;;11.97;;
7971;SDS011;4031;49.758;6.120;2023-06-22T00:47:52;14.80;;;10.10;;
7971;SDS011;4031;49.758;6.120;2023-06-22T00:50:22;13.80;;;9.87;;
7971;SDS011;4031;49.758;6.120;2023-06-22T00:52:51;13.57;;;10.80;;
7971;SDS011;4031;49.758;6.120;2023-06-22T00:55:22;17.10;;;11.50;;
7971;SDS011;4031;49.758;6.120;2023-06-22T00:57:48;14.87;;;10.80;;
7971;SDS011;4031;49.758;6.120;2023-06-22T01:00:15;15.47;;;11.00;;
7971;SDS011;4031;49.758;6.120;2023-06-22T01:02:42;17.50;;;11.87;;
7971;SDS011;4031;49.758;6.120;2023-06-22T01:05:13;13.37;;;11.03;;
7971;SDS011;4031;49.758;6.120;2023-06-22T01:08:22;18.90;;;11.30;;
7971;SDS011;4031;49.758;6.120;2023-06-22T01:13:49;15.40;;;12.13;;
7971;SDS011;4031;49.758;6.120;2023-06-22T01:16:34;17.93;;;11.90;;
7971;SDS011;4031;49.758;6.120;2023-06-22T01:19:09;17.90;;;12.20;;
7971;SDS011;4031;49.758;6.120;2023-06-22T01:21:46;16.50;;;11.23;;
7971;SDS011;4031;49.758;6.120;2023-06-22T01:24:27;19.97;;;13.03;;
7971;SDS011;4031;49.758;6.120;2023-06-22T01:29:46;18.73;;;12.70;;
7971;SDS011;4031;49.758;6.120;2023-06-22T01:32:18;17.73;;;14.40;;
7971;SDS011;4031;49.758;6.120;2023-06-22T01:34:45;19.30;;;14.50;;
7971;SDS011;4031;49.758;6.120;2023-06-22T01:37:14;18.63;;;13.70;;
7971;SDS011;4031;49.758;6.120;2023-06-22T01:39:40;20.03;;;14.50;;
7971;SDS011;4031;49.758;6.120;2023-06-22T01:42:06;17.40;;;13.63;;
7971;SDS011;4031;49.758;6.120;2023-06-22T01:44:32;16.90;;;13.57;;
7971;SDS011;4031;49.758;6.120;2023-06-22T01:46:59;17.87;;;13.53;;
7971;SDS011;4031;49.758;6.120;2023-06-22T01:49:25;20.53;;;15.00;;
7971;SDS011;4031;49.758;6.120;2023-06-22T01:51:50;27.50;;;15.83;;
7971;SDS011;4031;49.758;6.120;2023-06-22T01:54:16;17.40;;;13.27;;
7971;SDS011;4031;49.758;6.120;2023-06-22T01:56:42;20.37;;;13.17;;
7971;SDS011;4031;49.758;6.120;2023-06-22T01:59:12;20.10;;;13.47;;
7971;SDS011;4031;49.758;6.120;2023-06-22T02:04:48;21.00;;;14.73;;
7971;SDS011;4031;49.758;6.120;2023-06-22T02:07:22;20.77;;;15.23;;
7971;SDS011;4031;49.758;6.120;2023-06-22T02:09:54;19.77;;;13.83;;
7971;SDS011;4031;49.758;6.120;2023-06-22T02:12:22;21.90;;;14.53;;
7971;SDS011;4031;49.758;6.120;2023-06-22T02:14:50;24.03;;;14.73;;
7971;SDS011;4031;49.758;6.120;2023-06-22T02:17:17;23.10;;;16.20;;
7971;SDS011;4031;49.758;6.120;2023-06-22T02:19:43;21.17;;;13.60;;
7971;SDS011;4031;49.758;6.120;2023-06-22T02:22:09;18.87;;;13.90;;
7971;SDS011;4031;49.758;6.120;2023-06-22T02:24:35;17.60;;;14.13;;
7971;SDS011;4031;49.758;6.120;2023-06-22T02:27:01;22.50;;;14.30;;
7971;SDS011;4031;49.758;6.120;2023-06-22T02:29:27;20.43;;;14.73;;
7971;SDS011;4031;49.758;6.120;2023-06-22T02:31:54;22.60;;;15.40;;
7971;SDS011;4031;49.758;6.120;2023-06-22T02:34:20;23.40;;;15.43;;
7971;SDS011;4031;49.758;6.120;2023-06-22T02:36:47;20.50;;;15.30;;
7971;SDS011;4031;49.758;6.120;2023-06-22T02:39:19;18.70;;;14.40;;
7971;SDS011;4031;49.758;6.120;2023-06-22T02:41:52;16.57;;;13.03;;
7971;SDS011;4031;49.758;6.120;2023-06-22T02:44:19;21.90;;;14.40;;
7971;SDS011;4031;49.758;6.120;2023-06-22T02:46:46;21.17;;;14.60;;
7971;SDS011;4031;49.758;6.120;2023-06-22T02:49:12;21.40;;;15.17;;
7971;SDS011;4031;49.758;6.120;2023-06-22T02:51:38;21.83;;;14.83;;
7971;SDS011;4031;49.758;6.120;2023-06-22T02:54:11;24.20;;;16.80;;
7971;SDS011;4031;49.758;6.120;2023-06-22T02:56:37;25.07;;;14.40;;
7971;SDS011;4031;49.758;6.120;2023-06-22T02:59:02;24.77;;;15.97;;
7971;SDS011;4031;49.758;6.120;2023-06-22T03:01:28;22.97;;;15.20;;
7971;SDS011;4031;49.758;6.120;2023-06-22T03:03:55;20.90;;;14.90;;
7971;SDS011;4031;49.758;6.120;2023-06-22T03:06:21;26.93;;;15.83;;
7971;SDS011;4031;49.758;6.120;2023-06-22T03:08:51;24.53;;;16.13;;
7971;SDS011;4031;49.758;6.120;2023-06-22T03:11:17;26.20;;;13.63;;
7971;SDS011;4031;49.758;6.120;2023-06-22T03:13:43;21.27;;;14.80;;
7971;SDS011;4031;49.758;6.120;2023-06-22T03:16:10;23.83;;;15.80;;
7971;SDS011;4031;49.758;6.120;2023-06-22T03:18:36;24.40;;;15.70;;
7971;SDS011;4031;49.758;6.120;2023-06-22T03:21:01;20.73;;;14.23;;
7971;SDS011;4031;49.758;6.120;2023-06-22T03:23:27;25.73;;;16.30;;
7971;SDS011;4031;49.758;6.120;2023-06-22T03:25:53;25.20;;;16.30;;
7971;SDS011;4031;49.758;6.120;2023-06-22T03:28:20;25.83;;;15.50;;
7971;SDS011;4031;49.758;6.120;2023-06-22T03:30:46;29.97;;;16.50;;
7971;SDS011;4031;49.758;6.120;2023-06-22T03:33:12;26.20;;;16.70;;
7971;SDS011;4031;49.758;6.120;2023-06-22T03:35:38;26.63;;;15.07;;
7971;SDS011;4031;49.758;6.120;2023-06-22T03:38:04;28.07;;;16.10;;
7971;SDS011;4031;49.758;6.120;2023-06-22T03:40:30;25.50;;;16.10;;
7971;SDS011;4031;49.758;6.120;2023-06-22T03:42:55;24.03;;;16.17;;
7971;SDS011;4031;49.758;6.120;2023-06-22T03:45:21;22.07;;;15.40;;
7971;SDS011;4031;49.758;6.120;2023-06-22T03:47:47;28.00;;;15.60;;
7971;SDS011;4031;49.758;6.120;2023-06-22T03:50:12;30.33;;;17.30;;
7971;SDS011;4031;49.758;6.120;2023-06-22T03:52:39;25.47;;;16.27;;
7971;SDS011;4031;49.758;6.120;2023-06-22T03:55:05;24.57;;;15.93;;
7971;SDS011;4031;49.758;6.120;2023-06-22T03:57:32;23.57;;;15.40;;
7971;SDS011;4031;49.758;6.120;2023-06-22T03:59:58;23.90;;;15.97;;
7971;SDS011;4031;49.758;6.120;2023-06-22T04:02:24;24.23;;;14.73;;
7971;SDS011;4031;49.758;6.120;2023-06-22T04:04:49;26.00;;;16.27;;
7971;SDS011;4031;49.758;6.120;2023-06-22T04:07:15;27.87;;;16.40;;
7971;SDS011;4031;49.758;6.120;2023-06-22T04:09:42;25.03;;;15.73;;
7971;SDS011;4031;49.758;6.120;2023-06-22T04:12:08;28.10;;;14.53;;
7971;SDS011;4031;49.758;6.120;2023-06-22T04:14:34;24.73;;;15.43;;
7971;SDS011;4031;49.758;6.120;2023-06-22T04:17:01;29.33;;;15.70;;
7971;SDS011;4031;49.758;6.120;2023-06-22T04:19:26;28.83;;;16.33;;
7971;SDS011;4031;49.758;6.120;2023-06-22T04:21:52;25.07;;;16.73;;
7971;SDS011;4031;49.758;6.120;2023-06-22T04:24:18;25.27;;;15.53;;
7971;SDS011;4031;49.758;6.120;2023-06-22T04:26:43;30.97;;;16.20;;
7971;SDS011;4031;49.758;6.120;2023-06-22T04:29:11;26.30;;;17.50;;
7971;SDS011;4031;49.758;6.120;2023-06-22T04:31:38;23.80;;;16.67;;
7971;SDS011;4031;49.758;6.120;2023-06-22T04:34:05;26.47;;;15.73;;
7971;SDS011;4031;49.758;6.120;2023-06-22T04:36:33;22.13;;;14.70;;
7971;SDS011;4031;49.758;6.120;2023-06-22T04:39:03;26.87;;;16.77;;
7971;SDS011;4031;49.758;6.120;2023-06-22T04:41:30;26.00;;;16.53;;
7971;SDS011;4031;49.758;6.120;2023-06-22T04:44:06;23.63;;;15.50;;
7971;SDS011;4031;49.758;6.120;2023-06-22T04:46:34;25.93;;;15.83;;
7971;SDS011;4031;49.758;6.120;2023-06-22T04:49:06;25.57;;;15.37;;
7971;SDS011;4031;49.758;6.120;2023-06-22T04:51:41;26.97;;;15.77;;
7971;SDS011;4031;49.758;6.120;2023-06-22T04:54:07;22.17;;;15.60;;
7971;SDS011;4031;49.758;6.120;2023-06-22T04:56:34;20.37;;;14.30;;
7971;SDS011;4031;49.758;6.120;2023-06-22T04:59:00;21.73;;;16.40;;
7971;SDS011;4031;49.758;6.120;2023-06-22T05:01:28;20.63;;;15.70;;
7971;SDS011;4031;49.758;6.120;2023-06-22T05:03:55;22.80;;;16.00;;
7971;SDS011;4031;49.758;6.120;2023-06-22T05:06:22;20.07;;;15.03;;
7971;SDS011;4031;49.758;6.120;2023-06-22T05:08:55;22.97;;;14.23;;
7971;SDS011;4031;49.758;6.120;2023-06-22T05:11:27;16.80;;;12.70;;
7971;SDS011;4031;49.758;6.120;2023-06-22T05:13:54;15.20;;;12.80;;
7971;SDS011;4031;49.758;6.120;2023-06-22T05:16:21;15.30;;;13.70;;
7971;SDS011;4031;49.758;6.120;2023-06-22T05:18:52;15.20;;;12.63;;
7971;SDS011;4031;49.758;6.120;2023-06-22T05:21:22;13.73;;;11.30;;
7971;SDS011;4031;49.758;6.120;2023-06-22T05:23:50;20.10;;;12.77;;
7971;SDS011;4031;49.758;6.120;2023-06-22T05:26:18;16.23;;;11.63;;
7971;SDS011;4031;49.758;6.120;2023-06-22T05:28:45;13.77;;;11.90;;
7971;SDS011;4031;49.758;6.120;2023-06-22T05:31:15;14.90;;;11.47;;
7971;SDS011;4031;49.758;6.120;2023-06-22T05:33:42;16.07;;;12.00;;
7971;SDS011;4031;49.758;6.120;2023-06-22T05:36:09;14.27;;;11.20;;
7971;SDS011;4031;49.758;6.120;2023-06-22T05:38:35;14.13;;;11.63;;
7971;SDS011;4031;49.758;6.120;2023-06-22T05:41:01;15.27;;;12.13;;
7971;SDS011;4031;49.758;6.120;2023-06-22T05:43:27;12.50;;;11.00;;
7971;SDS011;4031;49.758;6.120;2023-06-22T05:45:53;13.03;;;10.20;;
7971;SDS011;4031;49.758;6.120;2023-06-22T05:48:19;12.70;;;10.80;;
7971;SDS011;4031;49.758;6.120;2023-06-22T05:50:45;14.20;;;10.10;;
7971;SDS011;4031;49.758;6.120;2023-06-22T05:53:10;15.00;;;10.93;;
7971;SDS011;4031;49.758;6.120;2023-06-22T05:55:36;12.63;;;10.20;;
7971;SDS011;4031;49.758;6.120;2023-06-22T05:58:02;16.73;;;10.40;;
7971;SDS011;4031;49.758;6.120;2023-06-22T06:00:28;10.33;;;8.90;;
7971;SDS011;4031;49.758;6.120;2023-06-22T06:02:54;12.10;;;9.47;;
7971;SDS011;4031;49.758;6.120;2023-06-22T06:05:20;13.67;;;8.70;;
7971;SDS011;4031;49.758;6.120;2023-06-22T06:07:47;10.90;;;8.67;;
7971;SDS011;4031;49.758;6.120;2023-06-22T06:10:13;10.40;;;9.27;;
7971;SDS011;4031;49.758;6.120;2023-06-22T06:12:39;9.23;;;8.40;;
7971;SDS011;4031;49.758;6.120;2023-06-22T06:15:05;12.00;;;10.17;;
7971;SDS011;4031;49.758;6.120;2023-06-22T06:17:31;12.77;;;8.43;;
7971;SDS011;4031;49.758;6.120;2023-06-22T06:19:58;10.60;;;9.13;;
7971;SDS011;4031;49.758;6.120;2023-06-22T06:22:24;10.50;;;8.77;;
7971;SDS011;4031;49.758;6.120;2023-06-22T06:24:50;9.50;;;8.70;;
7971;SDS011;4031;49.758;6.120;2023-06-22T06:27:16;13.10;;;7.77;;
7971;SDS011;4031;49.758;6.120;2023-06-22T06:29:44;9.93;;;8.47;;
7971;SDS011;4031;49.758;6.120;2023-06-22T06:32:13;8.43;;;7.30;;
7971;SDS011;4031;49.758;6.120;2023-06-22T06:34:39;7.90;;;6.80;;
7971;SDS011;4031;49.758;6.120;2023-06-22T06:37:05;8.03;;;7.00;;
7971;SDS011;4031;49.758;6.120;2023-06-22T06:39:31;7.93;;;7.23;;
7971;SDS011;4031;49.758;6.120;2023-06-22T06:41:57;8.50;;;7.70;;
7971;SDS011;4031;49.758;6.120;2023-06-22T06:44:22;8.03;;;7.33;;
7971;SDS011;4031;49.758;6.120;2023-06-22T06:46:48;8.30;;;7.40;;
7971;SDS011;4031;49.758;6.120;2023-06-22T06:49:14;7.33;;;6.63;;
7971;SDS011;4031;49.758;6.120;2023-06-22T06:51:39;6.77;;;5.97;;
7971;SDS011;4031;49.758;6.120;2023-06-22T06:54:05;7.53;;;6.73;;
7971;SDS011;4031;49.758;6.120;2023-06-22T06:56:31;8.30;;;7.50;;
7971;SDS011;4031;49.758;6.120;2023-06-22T06:58:58;7.97;;;7.17;;
7971;SDS011;4031;49.758;6.120;2023-06-22T07:01:24;7.10;;;6.40;;
7971;SDS011;4031;49.758;6.120;2023-06-22T07:03:49;7.80;;;6.43;;
7971;SDS011;4031;49.758;6.120;2023-06-22T07:06:15;7.50;;;6.90;;
7971;SDS011;4031;49.758;6.120;2023-06-22T07:08:41;8.30;;;6.93;;
7971;SDS011;4031;49.758;6.120;2023-06-22T07:11:08;7.50;;;6.73;;
7971;SDS011;4031;49.758;6.120;2023-06-22T07:13:33;11.60;;;7.43;;
7971;SDS011;4031;49.758;6.120;2023-06-22T07:15:59;7.53;;;6.83;;
7971;SDS011;4031;49.758;6.120;2023-06-22T07:18:25;9.80;;;6.77;;
7971;SDS011;4031;49.758;6.120;2023-06-22T07:20:51;9.10;;;7.13;;
7971;SDS011;4031;49.758;6.120;2023-06-22T07:23:17;7.23;;;6.50;;
7971;SDS011;4031;49.758;6.120;2023-06-22T07:25:43;9.70;;;7.60;;
7971;SDS011;4031;49.758;6.120;2023-06-22T07:28:09;7.40;;;6.80;;
7971;SDS011;4031;49.758;6.120;2023-06-22T07:30:35;8.10;;;6.90;;
7971;SDS011;4031;49.758;6.120;2023-06-22T07:33:01;8.00;;;7.30;;
7971;SDS011;4031;49.758;6.120;2023-06-22T07:35:33;7.53;;;6.50;;
7971;SDS011;4031;49.758;6.120;2023-06-22T07:37:58;7.67;;;6.90;;
7971;SDS011;4031;49.758;6.120;2023-06-22T07:40:24;10.27;;;6.37;;
7971;SDS011;4031;49.758;6.120;2023-06-22T07:42:50;8.70;;;7.90;;
7971;SDS011;4031;49.758;6.120;2023-06-22T07:45:18;7.20;;;6.40;;
7971;SDS011;4031;49.758;6.120;2023-06-22T07:47:44;7.33;;;6.70;;
7971;SDS011;4031;49.758;6.120;2023-06-22T07:50:10;6.90;;;6.20;;
7971;SDS011;4031;49.758;6.120;2023-06-22T07:52:36;8.30;;;7.03;;
7971;SDS011;4031;49.758;6.120;2023-06-22T07:55:02;8.07;;;7.30;;
7971;SDS011;4031;49.758;6.120;2023-06-22T07:57:28;7.27;;;6.57;;
7971;SDS011;4031;49.758;6.120;2023-06-22T07:59:58;9.47;;;7.30;;
7971;SDS011;4031;49.758;6.120;2023-06-22T08:02:40;8.97;;;7.20;;
7971;SDS011;4031;49.758;6.120;2023-06-22T08:05:07;8.03;;;7.10;;
7971;SDS011;4031;49.758;6.120;2023-06-22T08:07:34;8.87;;;8.03;;
7971;SDS011;4031;49.758;6.120;2023-06-22T08:10:02;7.70;;;7.00;;
7971;SDS011;4031;49.758;6.120;2023-06-22T08:12:29;9.17;;;7.93;;
7971;SDS011;4031;49.758;6.120;2023-06-22T08:14:55;8.50;;;7.17;;
7971;SDS011;4031;49.758;6.120;2023-06-22T08:17:22;11.27;;;8.17;;
7971;SDS011;4031;49.758;6.120;2023-06-22T08:19:49;9.37;;;7.50;;
7971;SDS011;4031;49.758;6.120;2023-06-22T08:22:15;8.10;;;6.23;;
7971;SDS011;4031;49.758;6.120;2023-06-22T08:24:41;8.27;;;7.47;;
7971;SDS011;4031;49.758;6.120;2023-06-22T08:27:07;8.17;;;7.37;;
7971;SDS011;4031;49.758;6.120;2023-06-22T08:29:38;8.60;;;7.70;;
7971;SDS011;4031;49.758;6.120;2023-06-22T08:32:04;8.67;;;7.87;;
7971;SDS011;4031;49.758;6.120;2023-06-22T08:34:30;9.53;;;8.53;;
7971;SDS011;4031;49.758;6.120;2023-06-22T08:36:56;8.30;;;7.50;;
7971;SDS011;4031;49.758;6.120;2023-06-22T08:39:22;7.80;;;7.00;;
7971;SDS011;4031;49.758;6.120;2023-06-22T08:41:47;9.77;;;8.80;;
7971;SDS011;4031;49.758;6.120;2023-06-22T08:44:13;10.57;;;8.57;;
7971;SDS011;4031;49.758;6.120;2023-06-22T08:46:43;11.67;;;8.53;;
7971;SDS011;4031;49.758;6.120;2023-06-22T08:49:08;13.43;;;11.00;;
7971;SDS011;4031;49.758;6.120;2023-06-22T08:51:34;14.20;;;10.50;;
7971;SDS011;4031;49.758;6.120;2023-06-22T08:54:01;11.80;;;9.87;;
7971;SDS011;4031;49.758;6.120;2023-06-22T08:56:26;12.60;;;10.10;;
7971;SDS011;4031;49.758;6.120;2023-06-22T08:58:52;12.57;;;9.90;;
7971;SDS011;4031;49.758;6.120;2023-06-22T09:01:18;14.47;;;9.60;;
7971;SDS011;4031;49.758;6.120;2023-06-22T09:03:44;16.40;;;11.60;;
7971;SDS011;4031;49.758;6.120;2023-06-22T09:06:18;14.07;;;11.30;;
7971;SDS011;4031;49.758;6.120;2023-06-22T09:08:46;15.17;;;11.33;;
7971;SDS011;4031;49.758;6.120;2023-06-22T09:11:12;15.10;;;11.90;;
7971;SDS011;4031;49.758;6.120;2023-06-22T09:13:38;16.20;;;12.40;;
7971;SDS011;4031;49.758;6.120;2023-06-22T09:16:04;13.87;;;12.20;;
7971;SDS011;4031;49.758;6.120;2023-06-22T09:18:30;15.93;;;12.83;;
7971;SDS011;4031;49.758;6.120;2023-06-22T09:20:55;12.50;;;11.20;;
7971;SDS011;4031;49.758;6.120;2023-06-22T09:23:21;15.20;;;12.37;;
7971;SDS011;4031;49.758;6.120;2023-06-22T09:25:47;13.53;;;11.40;;
7971;SDS011;4031;49.758;6.120;2023-06-22T09:28:13;14.73;;;12.40;;
7971;SDS011;4031;49.758;6.120;2023-06-22T09:30:39;14.30;;;12.17;;
7971;SDS011;4031;49.758;6.120;2023-06-22T09:33:05;15.93;;;12.50;;
7971;SDS011;4031;49.758;6.120;2023-06-22T09:35:31;15.73;;;13.23;;
7971;SDS011;4031;49.758;6.120;2023-06-22T09:37:57;18.47;;;14.00;;
7971;SDS011;4031;49.758;6.120;2023-06-22T09:40:22;18.33;;;14.03;;
7971;SDS011;4031;49.758;6.120;2023-06-22T09:42:48;21.87;;;13.77;;
7971;SDS011;4031;49.758;6.120;2023-06-22T09:45:14;26.70;;;13.37;;
7971;SDS011;4031;49.758;6.120;2023-06-22T09:47:40;17.73;;;12.73;;
7971;SDS011;4031;49.758;6.120;2023-06-22T09:50:06;13.90;;;12.20;;
7971;SDS011;4031;49.758;6.120;2023-06-22T09:52:32;17.17;;;13.70;;
7971;SDS011;4031;49.758;6.120;2023-06-22T09:54:58;19.47;;;13.77;;
7971;SDS011;4031;49.758;6.120;2023-06-22T09:57:24;12.60;;;10.73;;
7971;SDS011;4031;49.758;6.120;2023-06-22T09:59:49;15.20;;;11.70;;
7971;SDS011;4031;49.758;6.120;2023-06-22T10:02:15;12.37;;;11.17;;
7971;SDS011;4031;49.758;6.120;2023-06-22T10:04:42;12.07;;;10.80;;
7971;SDS011;4031;49.758;6.120;2023-06-22T10:07:07;13.57;;;10.47;;
7971;SDS011;4031;49.758;6.120;2023-06-22T10:09:33;9.70;;;8.43;;
7971;SDS011;4031;49.758;6.120;2023-06-22T10:11:59;8.60;;;7.73;;
7971;SDS011;4031;49.758;6.120;2023-06-22T10:14:24;10.07;;;8.93;;
7971;SDS011;4031;49.758;6.120;2023-06-22T10:16:52;9.63;;;8.70;;
7971;SDS011;4031;49.758;6.120;2023-06-22T10:19:18;9.23;;;8.33;;
7971;SDS011;4031;49.758;6.120;2023-06-22T10:21:44;10.43;;;9.47;;
7971;SDS011;4031;49.758;6.120;2023-06-22T10:24:09;8.93;;;7.70;;
7971;SDS011;4031;49.758;6.120;2023-06-22T10:26:36;9.23;;;8.33;;
7971;SDS011;4031;49.758;6.120;2023-06-22T10:29:02;9.00;;;7.80;;
7971;SDS011;4031;49.758;6.120;2023-06-22T10:31:28;8.00;;;7.30;;
7971;SDS011;4031;49.758;6.120;2023-06-22T10:33:54;8.77;;;7.87;;
7971;SDS011;4031;49.758;6.120;2023-06-22T10:36:21;8.77;;;7.90;;
7971;SDS011;4031;49.758;6.120;2023-06-22T10:38:48;9.07;;;8.17;;
7971;SDS011;4031;49.758;6.120;2023-06-22T10:41:14;9.40;;;8.50;;
7971;SDS011;4031;49.758;6.120;2023-06-22T10:43:40;8.13;;;7.27;;
7971;SDS011;4031;49.758;6.120;2023-06-22T10:46:06;10.40;;;8.90;;
7971;SDS011;4031;49.758;6.120;2023-06-22T10:48:32;7.77;;;6.87;;
7971;SDS011;4031;49.758;6.120;2023-06-22T10:50:58;8.40;;;7.60;;
7971;SDS011;4031;49.758;6.120;2023-06-22T10:53:24;7.80;;;6.73;;
7971;SDS011;4031;49.758;6.120;2023-06-22T10:55:50;8.23;;;7.40;;
7971;SDS011;4031;49.758;6.120;2023-06-22T10:58:20;7.90;;;7.13;;
7971;SDS011;4031;49.758;6.120;2023-06-22T11:00:46;8.43;;;7.60;;
7971;SDS011;4031;49.758;6.120;2023-06-22T11:03:12;7.50;;;6.90;;
7971;SDS011;4031;49.758;6.120;2023-06-22T11:05:39;7.50;;;6.80;;
7971;SDS011;4031;49.758;6.120;2023-06-22T11:08:05;7.90;;;7.20;;
7971;SDS011;4031;49.758;6.120;2023-06-22T11:10:30;7.37;;;6.60;;
7971;SDS011;4031;49.758;6.120;2023-06-22T11:12:56;8.23;;;7.43;;
7971;SDS011;4031;49.758;6.120;2023-06-22T11:15:22;7.90;;;7.10;;
7971;SDS011;4031;49.758;6.120;2023-06-22T11:17:49;7.60;;;6.90;;
7971;SDS011;4031;49.758;6.120;2023-06-22T11:20:15;8.73;;;7.13;;
7971;SDS011;4031;49.758;6.120;2023-06-22T11:22:41;7.17;;;6.57;;
7971;SDS011;4031;49.758;6.120;2023-06-22T11:25:07;7.57;;;6.70;;
7971;SDS011;4031;49.758;6.120;2023-06-22T11:27:33;7.50;;;6.80;;
7971;SDS011;4031;49.758;6.120;2023-06-22T11:29:59;7.50;;;6.80;;
7971;SDS011;4031;49.758;6.120;2023-06-22T11:32:25;7.23;;;6.57;;
7971;SDS011;4031;49.758;6.120;2023-06-22T11:34:51;7.60;;;7.00;;
7971;SDS011;4031;49.758;6.120;2023-06-22T11:37:17;8.10;;;7.30;;
7971;SDS011;4031;49.758;6.120;2023-06-22T11:39:43;8.07;;;7.27;;
7971;SDS011;4031;49.758;6.120;2023-06-22T11:42:09;8.50;;;7.40;;
7971;SDS011;4031;49.758;6.120;2023-06-22T11:44:35;7.90;;;5.90;;
7971;SDS011;4031;49.758;6.120;2023-06-22T11:47:01;8.37;;;6.50;;
7971;SDS011;4031;49.758;6.120;2023-06-22T11:49:28;7.67;;;6.87;;
7971;SDS011;4031;49.758;6.120;2023-06-22T11:51:55;6.93;;;6.20;;
7971;SDS011;4031;49.758;6.120;2023-06-22T11:54:21;7.90;;;7.17;;
7971;SDS011;4031;49.758;6.120;2023-06-22T11:56:46;8.10;;;7.40;;
7971;SDS011;4031;49.758;6.120;2023-06-22T11:59:12;10.70;;;7.17;;
7971;SDS011;4031;49.758;6.120;2023-06-22T12:01:38;8.40;;;7.57;;
7971;SDS011;4031;49.758;6.120;2023-06-22T12:04:04;7.50;;;6.80;;
7971;SDS011;4031;49.758;6.120;2023-06-22T12:06:31;8.63;;;7.73;;
7971;SDS011;4031;49.758;6.120;2023-06-22T12:08:58;9.30;;;7.20;;
7971;SDS011;4031;49.758;6.120;2023-06-22T12:11:24;7.93;;;7.13;;
7971;SDS011;4031;49.758;6.120;2023-06-22T12:13:49;6.93;;;6.27;;
7971;SDS011;4031;49.758;6.120;2023-06-22T12:16:15;8.00;;;7.20;;
7971;SDS011;4031;49.758;6.120;2023-06-22T12:18:41;8.27;;;7.40;;
7971;SDS011;4031;49.758;6.120;2023-06-22T12:21:07;7.40;;;6.80;;
7971;SDS011;4031;49.758;6.120;2023-06-22T12:23:32;8.50;;;6.97;;
7971;SDS011;4031;49.758;6.120;2023-06-22T12:25:58;7.87;;;7.17;;
7971;SDS011;4031;49.758;6.120;2023-06-22T12:28:25;7.90;;;7.20;;
7971;SDS011;4031;49.758;6.120;2023-06-22T12:30:50;8.37;;;7.60;;
7971;SDS011;4031;49.758;6.120;2023-06-22T12:33:16;7.80;;;7.00;;
7971;SDS011;4031;49.758;6.120;2023-06-22T12:35:42;7.20;;;6.50;;
7971;SDS011;4031;49.758;6.120;2023-06-22T12:38:10;8.23;;;6.50;;
7971;SDS011;4031;49.758;6.120;2023-06-22T12:40:36;7.57;;;6.77;;
7971;SDS011;4031;49.758;6.120;2023-06-22T12:43:01;8.00;;;6.90;;
7971;SDS011;4031;49.758;6.120;2023-06-22T12:45:27;7.97;;;7.30;;
7971;SDS011;4031;49.758;6.120;2023-06-22T12:47:56;7.83;;;7.13;;
7971;SDS011;4031;49.758;6.120;2023-06-22T12:50:22;7.40;;;6.70;;
7971;SDS011;4031;49.758;6.120;2023-06-22T12:52:48;7.50;;;6.80;;
7971;SDS011;4031;49.758;6.120;2023-06-22T12:55:13;7.73;;;7.03;;
7971;SDS011;4031;49.758;6.120;2023-06-22T12:57:39;7.60;;;6.93;;
7971;SDS011;4031;49.758;6.120;2023-06-22T13:00:05;7.53;;;6.93;;
7971;SDS011;4031;49.758;6.120;2023-06-22T13:02:33;8.30;;;7.40;;
7971;SDS011;4031;49.758;6.120;2023-06-22T13:04:59;7.77;;;6.97;;
7971;SDS011;4031;49.758;6.120;2023-06-22T13:07:24;9.13;;;7.23;;
7971;SDS011;4031;49.758;6.120;2023-06-22T13:09:50;8.17;;;7.37;;
7971;SDS011;4031;49.758;6.120;2023-06-22T13:12:16;13.10;;;7.90;;
7971;SDS011;4031;49.758;6.120;2023-06-22T13:14:43;10.50;;;8.07;;
7971;SDS011;4031;49.758;6.120;2023-06-22T13:17:08;11.53;;;9.03;;
7971;SDS011;4031;49.758;6.120;2023-06-22T13:19:34;9.93;;;8.80;;
7971;SDS011;4031;49.758;6.120;2023-06-22T13:22:00;8.80;;;8.00;;
7971;SDS011;4031;49.758;6.120;2023-06-22T13:24:27;8.97;;;8.07;;
7971;SDS011;4031;49.758;6.120;2023-06-22T13:26:53;10.70;;;9.40;;
7971;SDS011;4031;49.758;6.120;2023-06-22T13:29:19;10.23;;;9.10;;
7971;SDS011;4031;49.758;6.120;2023-06-22T13:31:45;11.43;;;9.23;;
7971;SDS011;4031;49.758;6.120;2023-06-22T13:34:11;9.13;;;7.30;;
7971;SDS011;4031;49.758;6.120;2023-06-22T13:36:37;7.10;;;6.40;;
7971;SDS011;4031;49.758;6.120;2023-06-22T13:39:03;7.33;;;5.60;;
7971;SDS011;4031;49.758;6.120;2023-06-22T13:41:28;9.37;;;7.03;;
7971;SDS011;4031;49.758;6.120;2023-06-22T13:43:54;7.47;;;6.00;;
7971;SDS011;4031;49.758;6.120;2023-06-22T13:46:20;7.33;;;6.63;;
7971;SDS011;4031;49.758;6.120;2023-06-22T13:48:46;6.43;;;5.83;;
7971;SDS011;4031;49.758;6.120;2023-06-22T13:51:11;7.80;;;6.43;;
7971;SDS011;4031;49.758;6.120;2023-06-22T13:53:37;8.40;;;6.40;;
7971;SDS011;4031;49.758;6.120;2023-06-22T13:56:03;7.17;;;6.43;;
7971;SDS011;4031;49.758;6.120;2023-06-22T13:58:28;8.40;;;7.50;;
7971;SDS011;4031;49.758;6.120;2023-06-22T14:00:54;6.77;;;6.07;;
7971;SDS011;4031;49.758;6.120;2023-06-22T14:03:20;8.73;;;7.13;;
7971;SDS011;4031;49.758;6.120;2023-06-22T14:05:46;6.87;;;5.33;;
7971;SDS011;4031;49.758;6.120;2023-06-22T14:08:11;7.10;;;5.50;;
7971;SDS011;4031;49.758;6.120;2023-06-22T14:10:37;6.90;;;4.70;;
7971;SDS011;4031;49.758;6.120;2023-06-22T14:13:03;4.70;;;4.30;;
7971;SDS011;4031;49.758;6.120;2023-06-22T14:15:30;4.13;;;3.60;;
7971;SDS011;4031;49.758;6.120;2023-06-22T14:17:57;2.93;;;2.60;;
7971;SDS011;4031;49.758;6.120;2023-06-22T14:20:22;3.23;;;2.93;;
7971;SDS011;4031;49.758;6.120;2023-06-22T14:22:48;3.00;;;2.73;;
7971;SDS011;4031;49.758;6.120;2023-06-22T14:25:14;4.23;;;3.67;;
7971;SDS011;4031;49.758;6.120;2023-06-22T14:27:39;5.20;;;3.07;;
7971;SDS011;4031;49.758;6.120;2023-06-22T14:30:05;3.57;;;3.07;;
7971;SDS011;4031;49.758;6.120;2023-06-22T14:32:32;4.00;;;2.60;;
7971;SDS011;4031;49.758;6.120;2023-06-22T14:34:57;3.57;;;2.50;;
7971;SDS011;4031;49.758;6.120;2023-06-22T14:37:23;4.10;;;2.50;;
7971;SDS011;4031;49.758;6.120;2023-06-22T14:39:49;1.73;;;1.63;;
7971;SDS011;4031;49.758;6.120;2023-06-22T14:42:14;3.60;;;2.10;;
7971;SDS011;4031;49.758;6.120;2023-06-22T14:44:40;2.30;;;1.90;;
7971;SDS011;4031;49.758;6.120;2023-06-22T14:47:06;4.17;;;2.10;;
7971;SDS011;4031;49.758;6.120;2023-06-22T14:49:32;1.60;;;1.50;;
7971;SDS011;4031;49.758;6.120;2023-06-22T14:51:58;2.40;;;1.87;;
7971;SDS011;4031;49.758;6.120;2023-06-22T14:54:23;1.90;;;1.80;;
7971;SDS011;4031;49.758;6.120;2023-06-22T14:56:50;1.97;;;1.23;;
7971;SDS011;4031;49.758;6.120;2023-06-22T14:59:16;1.27;;;1.17;;
7971;SDS011;4031;49.758;6.120;2023-06-22T15:01:41;2.30;;;1.33;;
7971;SDS011;4031;49.758;6.120;2023-06-22T15:04:07;1.47;;;1.37;;
7971;SDS011;4031;49.758;6.120;2023-06-22T15:06:33;2.80;;;1.40;;
7971;SDS011;4031;49.758;6.120;2023-06-22T15:08:58;1.87;;;1.47;;